Time;durP1;ratioP1;P1;durP2;ratioP2;P2;SDS_P1;SDS_P2;PMS_P1;PMS_P2;Temp;Humidity;BMP_temperature;BMP_pressure;BME280_temperature;BME280_humidity;BME280_pressure;Samples;Min_cycle;Max_cycle;Signal;HPM_P1;HPM_P2
2022/10/21 00:01:07;;;;;;;;;;;19.70;78.70;;;;;;5051136;27;90036;-56
2022/10/21 00:03:33;;;;;;;;;;;19.70;78.70;;;;;;5041789;27;89470;-57
2022/10/21 00:05:59;;;;;;;;;;;19.70;78.60;;;;;;5052735;27;89675;-56
2022/10/21 00:08:24;;;;;;;;;;;19.70;78.60;;;;;;5043159;27;90043;-56
2022/10/21 00:10:51;;;;;;;;;;;19.70;78.60;;;;;;5054364;27;90748;-58
2022/10/21 00:13:16;;;;;;;;;;;19.70;78.70;;;;;;5041537;27;89845;-58
2022/10/21 00:15:42;;;;;;;;;;;19.70;78.70;;;;;;5052763;27;89700;-56
2022/10/21 00:18:07;;;;;;;;;;;19.70;78.70;;;;;;5049389;27;89823;-56
2022/10/21 00:20:33;;;;;;;;;;;19.70;78.60;;;;;;5053503;27;90333;-56
2022/10/21 00:22:59;;;;;;;;;;;19.70;78.70;;;;;;5029465;27;91751;-58
2022/10/21 00:25:24;;;;;;;;;;;19.60;78.60;;;;;;5040365;27;90963;-56
2022/10/21 00:27:49;;;;;;;;;;;19.60;78.60;;;;;;5050350;27;88519;-55
2022/10/21 00:30:15;;;;;;;;;;;19.60;78.70;;;;;;5048695;27;90334;-57
2022/10/21 00:32:40;;;;;;;;;;;19.60;78.70;;;;;;5042198;27;93741;-57
2022/10/21 00:35:06;;;;;;;;;;;19.60;78.70;;;;;;5027465;27;90827;-57
2022/10/21 00:37:31;;;;;;;;;;;19.60;78.60;;;;;;5043439;27;89384;-55
2022/10/21 00:39:57;;;;;;;;;;;19.60;78.60;;;;;;5042140;27;90961;-57
2022/10/21 00:42:28;;;;;;;;;;;19.60;78.60;;;;;;5044829;27;90291;-57
2022/10/21 00:45:01;;;;;;;;;;;19.60;78.60;;;;;;5048671;27;90462;-56
2022/10/21 00:47:26;;;;;;;;;;;19.60;78.60;;;;;;5047015;27;90278;-56
2022/10/21 00:49:58;;;;;;;;;;;19.60;78.50;;;;;;5042199;27;90588;-58
2022/10/21 00:52:24;;;;;;;;;;;19.60;78.60;;;;;;5043807;27;90849;-58
2022/10/21 00:54:51;;;;;;;;;;;19.60;78.60;;;;;;5038929;27;89815;-57
2022/10/21 00:57:17;;;;;;;;;;;19.60;78.60;;;;;;5045256;27;89669;-55
2022/10/21 00:59:45;;;;;;;;;;;19.60;78.50;;;;;;5043955;27;92924;-57
2022/10/21 01:02:10;;;;;;;;;;;19.60;78.50;;;;;;5048835;27;90504;-57
2022/10/21 01:04:36;;;;;;;;;;;19.60;78.60;;;;;;5039049;27;90382;-58
2022/10/21 01:07:02;;;;;;;;;;;19.60;78.50;;;;;;5033068;27;94562;-57
2022/10/21 01:09:28;;;;;;;;;;;19.60;78.50;;;;;;5045450;27;89614;-56
2022/10/21 01:11:55;;;;;;;;;;;19.60;78.50;;;;;;5054808;27;89744;-57
2022/10/21 01:14:32;;;;;;;;;;;19.60;78.50;;;;;;5038321;27;94523;-56
2022/10/21 01:17:10;;;;;;;;;;;19.50;78.40;;;;;;5041098;27;91192;-57
2022/10/21 01:19:54;;;;;;;;;;;19.50;78.50;;;;;;5042687;27;91125;-55
2022/10/21 01:22:19;;;;;;;;;;;19.60;78.50;;;;;;5045242;27;90153;-57
2022/10/21 01:24:45;;;;;;;;;;;19.60;78.60;;;;;;5040070;27;96170;-58
2022/10/21 01:27:17;;;;;;;;;;;19.50;78.50;;;;;;5038619;27;89746;-56
2022/10/21 01:29:53;;;;;;;;;;;19.50;78.50;;;;;;5043179;27;89548;-58
2022/10/21 01:32:19;;;;;;;;;;;19.50;78.50;;;;;;5045860;27;89781;-56
2022/10/21 01:34:51;;;;;;;;;;;19.50;78.50;;;;;;5013514;27;90100;-57
2022/10/21 01:37:22;;;;;;;;;;;19.50;79.10;;;;;;5000003;27;91931;-57
2022/10/21 01:39:50;;;;;;;;;;;19.50;78.40;;;;;;5023597;27;89695;-57
2022/10/21 01:42:21;;;;;;;;;;;19.50;78.40;;;;;;5015491;27;92001;-57
2022/10/21 01:44:53;;;;;;;;;;;19.50;78.50;;;;;;5014198;27;90542;-57
2022/10/21 01:47:30;;;;;;;;;;;19.50;78.40;;;;;;5023812;27;90404;-58
2022/10/21 01:50:01;;;;;;;;;;;19.50;78.50;;;;;;5011567;27;92404;-58
2022/10/21 01:52:28;;;;;;;;;;;19.50;78.50;;;;;;5017264;27;89769;-58
2022/10/21 01:54:55;;;;;;;;;;;19.50;78.50;;;;;;5018715;27;90767;-56
2022/10/21 01:57:23;;;;;;;;;;;19.40;78.40;;;;;;5025765;27;90372;-57
2022/10/21 01:59:49;;;;;;;;;;;19.40;78.40;;;;;;5030040;27;90132;-57
2022/10/21 02:02:16;;;;;;;;;;;19.40;78.50;;;;;;5026880;27;89691;-58
2022/10/21 02:04:42;;;;;;;;;;;19.40;78.40;;;;;;5017455;27;95843;-56
2022/10/21 02:07:08;;;;;;;;;;;19.40;78.40;;;;;;5025533;27;88912;-58
2022/10/21 02:09:33;;;;;;;;;;;19.40;78.40;;;;;;5025949;27;91458;-55
2022/10/21 02:12:00;;;;;;;;;;;19.40;78.40;;;;;;5027147;27;90093;-56
2022/10/21 02:14:37;;;;;;;;;;;19.40;78.60;;;;;;5020055;27;90784;-57
2022/10/21 02:17:03;;;;;;;;;;;19.40;78.50;;;;;;5020042;27;92669;-57
2022/10/21 02:19:29;;;;;;;;;;;19.40;78.40;;;;;;5018926;27;90983;-57
2022/10/21 02:21:57;;;;;;;;;;;19.40;78.40;;;;;;5007266;27;91387;-57
2022/10/21 02:24:50;;;;;;;;;;;19.40;78.40;;;;;;5030160;27;89762;-58
2022/10/21 02:27:16;;;;;;;;;;;19.40;78.40;;;;;;5023448;27;89767;-56
2022/10/21 02:29:43;;;;;;;;;;;19.40;78.40;;;;;;5028367;27;90210;-56
2022/10/21 02:32:11;;;;;;;;;;;19.40;78.40;;;;;;5020792;27;89020;-56
2022/10/21 02:34:47;;;;;;;;;;;19.40;78.40;;;;;;5036808;27;90410;-57
2022/10/21 02:37:13;;;;;;;;;;;19.40;78.40;;;;;;5042914;27;89905;-57
2022/10/21 02:39:42;;;;;;;;;;;19.30;78.40;;;;;;5047605;27;90910;-57
2022/10/21 02:42:10;;;;;;;;;;;19.40;78.40;;;;;;5035473;27;93303;-56
2022/10/21 02:44:36;;;;;;;;;;;19.30;78.30;;;;;;5046743;27;89842;-56
2022/10/21 02:47:02;;;;;;;;;;;19.30;78.40;;;;;;5044358;27;93058;-57
2022/10/21 02:49:27;;;;;;;;;;;19.30;78.40;;;;;;5040860;27;91037;-56
2022/10/21 02:51:53;;;;;;;;;;;19.30;78.40;;;;;;5042919;27;91120;-54
2022/10/21 02:54:18;;;;;;;;;;;19.30;78.40;;;;;;5043057;27;89770;-57
2022/10/21 02:56:44;;;;;;;;;;;19.30;78.50;;;;;;5031725;27;90110;-57
2022/10/21 02:59:09;;;;;;;;;;;19.30;78.50;;;;;;5043558;27;91370;-57
2022/10/21 03:01:35;;;;;;;;;;;19.30;78.40;;;;;;5039635;27;91814;-57
2022/10/21 03:04:00;;;;;;;;;;;19.30;78.40;;;;;;5052717;27;90674;-56
2022/10/21 03:06:26;;;;;;;;;;;19.20;78.40;;;;;;5047041;27;89948;-56
2022/10/21 03:08:52;;;;;;;;;;;19.30;78.50;;;;;;5047643;27;91793;-57
2022/10/21 03:11:17;;;;;;;;;;;19.30;78.50;;;;;;5025617;27;94742;-57
2022/10/21 03:13:43;;;;;;;;;;;19.30;78.40;;;;;;5042575;27;93626;-56
2022/10/21 03:16:08;;;;;;;;;;;19.20;78.30;;;;;;5036204;27;89495;-57
2022/10/21 03:18:34;;;;;;;;;;;19.30;78.40;;;;;;5042957;27;90522;-57
2022/10/21 03:20:59;;;;;;;;;;;19.30;78.40;;;;;;5036356;27;92591;-56
2022/10/21 03:23:24;;;;;;;;;;;19.20;78.40;;;;;;5051760;27;89298;-58
2022/10/21 03:25:50;;;;;;;;;;;19.20;78.40;;;;;;5042740;27;90768;-56
2022/10/21 03:28:15;;;;;;;;;;;19.30;78.40;;;;;;5040842;27;90718;-57
2022/10/21 03:30:41;;;;;;;;;;;19.20;78.40;;;;;;5044442;27;91244;-57
2022/10/21 03:33:07;;;;;;;;;;;19.30;78.40;;;;;;5031888;27;95833;-56
2022/10/21 03:35:32;;;;;;;;;;;19.30;78.40;;;;;;5013274;27;89883;-57
2022/10/21 03:37:58;;;;;;;;;;;19.20;78.30;;;;;;5025741;27;90356;-56
2022/10/21 03:40:28;;;;;;;;;;;19.20;78.30;;;;;;5030560;27;90347;-57
2022/10/21 03:42:54;;;;;;;;;;;19.20;78.30;;;;;;5026708;27;89782;-56
2022/10/21 03:45:20;;;;;;;;;;;19.20;78.30;;;;;;5023013;27;90432;-57
2022/10/21 03:47:46;;;;;;;;;;;19.20;78.30;;;;;;5019694;27;89520;-58
2022/10/21 03:50:11;;;;;;;;;;;19.20;78.30;;;;;;5014919;27;91314;-56
2022/10/21 03:52:37;;;;;;;;;;;19.20;78.30;;;;;;5022751;27;91175;-58
2022/10/21 03:55:03;;;;;;;;;;;19.20;78.20;;;;;;5004542;27;90290;-56
2022/10/21 03:57:28;;;;;;;;;;;19.20;78.20;;;;;;5009476;27;89408;-56
2022/10/21 03:59:54;;;;;;;;;;;19.20;78.30;;;;;;5032034;27;90497;-57
2022/10/21 04:02:19;;;;;;;;;;;19.20;78.20;;;;;;5022686;27;89717;-58
2022/10/21 04:04:45;;;;;;;;;;;19.20;78.20;;;;;;5024550;27;90424;-56
2022/10/21 04:07:10;;;;;;;;;;;19.20;78.20;;;;;;5018989;27;91719;-56
2022/10/21 04:09:36;;;;;;;;;;;19.20;78.30;;;;;;5027220;27;89369;-56
2022/10/21 04:12:01;;;;;;;;;;;19.20;78.20;;;;;;4998186;27;89544;-57
2022/10/21 04:14:27;;;;;;;;;;;19.20;78.10;;;;;;5024829;27;91127;-57
2022/10/21 04:16:52;;;;;;;;;;;19.20;78.10;;;;;;5020488;27;90848;-57
2022/10/21 04:19:19;;;;;;;;;;;19.20;78.10;;;;;;5010284;27;90923;-58
2022/10/21 04:21:44;;;;;;;;;;;19.20;78.10;;;;;;5020247;27;92686;-59
2022/10/21 04:24:10;;;;;;;;;;;19.20;78.00;;;;;;5030324;27;89761;-58
2022/10/21 04:26:35;;;;;;;;;;;19.20;78.00;;;;;;5023545;27;89483;-57
2022/10/21 04:29:01;;;;;;;;;;;19.20;78.00;;;;;;5021794;27;91763;-57
2022/10/21 04:31:28;;;;;;;;;;;19.20;78.10;;;;;;5022773;27;89690;-57
2022/10/21 04:33:54;;;;;;;;;;;19.20;78.10;;;;;;5028393;27;89446;-58
2022/10/21 04:36:19;;;;;;;;;;;19.20;78.00;;;;;;5039482;27;94760;-57
2022/10/21 04:38:45;;;;;;;;;;;19.20;78.00;;;;;;5029251;27;91801;-57
2022/10/21 04:41:10;;;;;;;;;;;19.20;78.00;;;;;;5044386;27;94138;-56
2022/10/21 04:43:36;;;;;;;;;;;19.20;78.10;;;;;;5035663;27;89735;-56
2022/10/21 04:46:02;;;;;;;;;;;19.20;78.00;;;;;;5045575;27;93769;-56
2022/10/21 04:48:27;;;;;;;;;;;19.20;78.00;;;;;;5041608;27;90300;-56
2022/10/21 04:50:54;;;;;;;;;;;19.20;78.00;;;;;;5038389;27;91103;-57
2022/10/21 04:53:20;;;;;;;;;;;19.20;77.90;;;;;;5043699;27;93001;-57
2022/10/21 04:55:49;;;;;;;;;;;19.20;77.90;;;;;;5045806;27;89496;-57
2022/10/21 04:58:15;;;;;;;;;;;19.20;77.90;;;;;;5049707;27;88997;-57
2022/10/21 05:00:40;;;;;;;;;;;19.20;77.90;;;;;;5049372;27;90068;-57
2022/10/21 05:03:06;;;;;;;;;;;19.20;77.80;;;;;;5042374;27;91076;-57
2022/10/21 05:05:31;;;;;;;;;;;19.20;77.80;;;;;;5045119;27;90993;-57
2022/10/21 05:07:57;;;;;;;;;;;19.20;77.80;;;;;;5041402;27;90956;-56
2022/10/21 05:10:24;;;;;;;;;;;19.20;77.80;;;;;;5043590;27;91019;-56
2022/10/21 05:12:49;;;;;;;;;;;19.20;77.80;;;;;;5041105;27;89442;-57
2022/10/21 05:15:15;;;;;;;;;;;19.20;77.80;;;;;;5040395;27;89565;-56
2022/10/21 05:17:40;;;;;;;;;;;19.20;77.80;;;;;;5040024;27;90369;-56
2022/10/21 05:20:06;;;;;;;;;;;19.20;77.80;;;;;;5038408;27;90499;-57
2022/10/21 05:22:32;;;;;;;;;;;19.20;78.60;;;;;;5035965;27;90248;-56
2022/10/21 05:24:57;;;;;;;;;;;19.20;77.80;;;;;;5034824;27;90573;-58
2022/10/21 05:27:23;;;;;;;;;;;19.20;77.70;;;;;;5045354;27;90840;-57
2022/10/21 05:29:48;;;;;;;;;;;19.20;77.70;;;;;;5040131;27;94192;-57
2022/10/21 05:32:14;;;;;;;;;;;19.20;77.80;;;;;;5043810;27;91699;-56
2022/10/21 05:34:39;;;;;;;;;;;19.20;77.80;;;;;;5014878;27;89950;-56
2022/10/21 05:37:05;;;;;;;;;;;19.20;77.70;;;;;;5015079;27;89804;-59
2022/10/21 05:39:30;;;;;;;;;;;19.20;77.70;;;;;;5011362;27;91292;-57
2022/10/21 05:41:56;;;;;;;;;;;19.20;77.80;;;;;;5023779;27;89289;-57
2022/10/21 05:44:21;;;;;;;;;;;19.20;77.80;;;;;;5028329;27;92140;-57
2022/10/21 05:46:47;;;;;;;;;;;19.20;77.80;;;;;;5025388;27;89214;-58
2022/10/21 05:49:13;;;;;;;;;;;19.20;77.80;;;;;;5016081;27;89776;-57
2022/10/21 05:51:38;;;;;;;;;;;19.20;77.80;;;;;;5027020;27;90228;-55
2022/10/21 05:54:04;;;;;;;;;;;19.20;77.70;;;;;;5021878;27;92505;-58
2022/10/21 05:56:30;;;;;;;;;;;19.20;77.80;;;;;;5016917;27;91080;-57
2022/10/21 05:58:55;;;;;;;;;;;19.20;77.80;;;;;;5015792;27;89377;-56
2022/10/21 06:01:21;;;;;;;;;;;19.20;77.70;;;;;;5025532;27;94411;-57
2022/10/21 06:03:46;;;;;;;;;;;19.20;77.80;;;;;;5021621;27;89610;-57
2022/10/21 06:06:12;;;;;;;;;;;19.20;77.80;;;;;;5025488;27;89279;-61
2022/10/21 06:08:40;;;;;;;;;;;19.20;77.70;;;;;;5019719;27;91853;-56
2022/10/21 06:11:07;;;;;;;;;;;19.20;77.70;;;;;;5030660;27;89168;-58
2022/10/21 06:13:33;;;;;;;;;;;19.20;77.80;;;;;;5031059;27;89751;-59
2022/10/21 06:15:58;;;;;;;;;;;19.20;77.80;;;;;;5023194;27;90898;-58
2022/10/21 06:18:24;;;;;;;;;;;19.20;77.70;;;;;;5018977;27;90927;-56
2022/10/21 06:20:50;;;;;;;;;;;19.20;77.70;;;;;;5026740;27;91119;-58
2022/10/21 06:23:16;;;;;;;;;;;19.20;77.80;;;;;;5017110;27;91403;-58
2022/10/21 06:25:42;;;;;;;;;;;19.10;77.80;;;;;;5012527;27;90050;-58
2022/10/21 06:28:08;;;;;;;;;;;19.20;77.80;;;;;;5030741;27;90315;-55
2022/10/21 06:30:34;;;;;;;;;;;19.20;77.80;;;;;;5028694;27;90882;-58
2022/10/21 06:32:59;;;;;;;;;;;19.20;77.80;;;;;;5022494;27;90027;-58
2022/10/21 06:35:26;;;;;;;;;;;19.20;77.70;;;;;;4994906;27;109324;-57
2022/10/21 06:37:51;;;;;;;;;;;19.20;77.70;;;;;;5029980;27;89660;-58
2022/10/21 06:40:17;;;;;;;;;;;19.20;77.70;;;;;;5024586;27;89810;-58
2022/10/21 06:42:42;;;;;;;;;;;19.20;77.70;;;;;;5017755;27;91339;-58
2022/10/21 06:45:08;;;;;;;;;;;19.20;78.50;;;;;;5026384;27;91180;-58
2022/10/21 06:47:33;;;;;;;;;;;19.20;77.70;;;;;;5003413;27;90154;-59
2022/10/21 06:50:01;;;;;;;;;;;19.10;77.70;;;;;;5023830;27;91076;-58
2022/10/21 06:52:28;;;;;;;;;;;19.20;78.00;;;;;;5024271;27;90996;-59
2022/10/21 06:54:53;;;;;;;;;;;19.30;78.40;;;;;;5026052;27;90018;-59
2022/10/21 06:57:19;;;;;;;;;;;19.40;78.50;;;;;;5026877;27;91131;-57
2022/10/21 06:59:45;;;;;;;;;;;19.40;78.70;;;;;;4996342;27;91645;-56
2022/10/21 07:02:11;;;;;;;;;;;19.40;78.40;;;;;;5014107;27;90094;-49
2022/10/21 07:04:36;;;;;;;;;;;19.50;78.80;;;;;;5017155;27;90193;-57
2022/10/21 07:07:02;;;;;;;;;;;19.50;79.00;;;;;;5007674;27;91662;-56
2022/10/21 07:09:27;;;;;;;;;;;19.50;79.10;;;;;;5002734;27;91097;-57
2022/10/21 07:11:54;;;;;;;;;;;19.40;78.90;;;;;;5014237;27;90144;-58
2022/10/21 07:14:19;;;;;;;;;;;19.40;78.90;;;;;;5021083;27;91565;-58
2022/10/21 07:16:46;;;;;;;;;;;19.40;79.00;;;;;;5014705;27;89686;-58
2022/10/21 07:19:11;;;;;;;;;;;19.40;79.10;;;;;;5020457;27;94736;-56
2022/10/21 07:21:37;;;;;;;;;;;19.40;79.30;;;;;;5018140;27;91058;-57
2022/10/21 07:24:02;;;;;;;;;;;19.40;79.50;;;;;;5020400;27;89586;-59
2022/10/21 07:26:29;;;;;;;;;;;19.40;79.50;;;;;;5022539;27;89468;-58
2022/10/21 07:28:57;;;;;;;;;;;19.40;79.50;;;;;;5014138;27;89970;-59
2022/10/21 07:31:22;;;;;;;;;;;19.30;79.60;;;;;;5021438;27;91707;-55
2022/10/21 07:33:48;;;;;;;;;;;19.40;79.50;;;;;;5024613;27;92464;-58
2022/10/21 07:36:21;;;;;;;;;;;19.30;79.50;;;;;;5043166;27;89518;-58
2022/10/21 07:38:47;;;;;;;;;;;19.30;79.60;;;;;;5032893;27;89877;-58
2022/10/21 07:41:14;;;;;;;;;;;19.30;79.60;;;;;;5034640;27;91178;-58
2022/10/21 07:43:40;;;;;;;;;;;19.40;79.60;;;;;;5041099;27;92445;-59
2022/10/21 07:46:05;;;;;;;;;;;19.40;79.50;;;;;;5050801;27;92140;-58
2022/10/21 07:48:31;;;;;;;;;;;19.40;79.50;;;;;;5040351;27;89360;-59
2022/10/21 07:51:02;;;;;;;;;;;19.40;79.50;;;;;;5015318;27;91300;-59
2022/10/21 07:53:27;;;;;;;;;;;19.40;79.50;;;;;;5045388;27;89391;-58
2022/10/21 07:56:02;;;;;;;;;;;19.40;79.50;;;;;;5009966;27;91051;-57
2022/10/21 07:58:28;;;;;;;;;;;19.40;79.30;;;;;;5040388;27;89808;-58
2022/10/21 08:00:56;;;;;;;;;;;19.40;79.20;;;;;;5037517;27;91281;-58
2022/10/21 08:03:21;;;;;;;;;;;19.40;79.20;;;;;;5040451;27;91566;-59
2022/10/21 08:05:47;;;;;;;;;;;19.40;79.00;;;;;;5044109;27;89758;-58
2022/10/21 08:08:12;;;;;;;;;;;19.40;79.00;;;;;;5040595;27;95356;-59
2022/10/21 08:10:39;;;;;;;;;;;19.40;79.00;;;;;;5038760;27;89796;-58
2022/10/21 08:13:04;;;;;;;;;;;19.40;78.90;;;;;;5038030;27;90549;-58
2022/10/21 08:15:30;;;;;;;;;;;19.50;78.90;;;;;;5034140;27;92065;-59
2022/10/21 08:17:55;;;;;;;;;;;19.50;78.80;;;;;;5053117;27;89755;-58
2022/10/21 08:20:21;;;;;;;;;;;19.50;78.80;;;;;;5045242;27;91132;-58
2022/10/21 08:22:47;;;;;;;;;;;19.50;78.70;;;;;;5041754;27;91402;-57
2022/10/21 08:25:15;;;;;;;;;;;19.50;78.60;;;;;;5045398;27;89355;-58
2022/10/21 08:27:41;;;;;;;;;;;19.50;78.60;;;;;;5044204;27;89841;-59
2022/10/21 08:30:07;;;;;;;;;;;19.50;78.50;;;;;;5045599;27;92528;-57
2022/10/21 08:32:32;;;;;;;;;;;19.50;78.50;;;;;;5061661;27;90302;-57
2022/10/21 08:34:58;;;;;;;;;;;19.50;78.40;;;;;;5052000;27;90240;-59
2022/10/21 08:37:23;;;;;;;;;;;19.50;78.40;;;;;;5028580;27;89119;-58
2022/10/21 08:39:49;;;;;;;;;;;19.50;78.30;;;;;;5034443;27;90468;-58
2022/10/21 08:42:15;;;;;;;;;;;19.50;78.20;;;;;;5045276;27;93203;-59
2022/10/21 08:45:07;;;;;;;;;;;19.60;78.30;;;;;;5040696;27;92841;-57
2022/10/21 08:47:32;;;;;;;;;;;19.60;78.20;;;;;;5035017;27;89405;-58
2022/10/21 08:50:00;;;;;;;;;;;19.50;78.10;;;;;;5040064;27;90179;-56
2022/10/21 08:52:38;;;;;;;;;;;19.60;78.20;;;;;;5040437;27;91763;-59
2022/10/21 08:55:05;;;;;;;;;;;19.60;78.10;;;;;;5051702;27;92069;-58
2022/10/21 08:57:33;;;;;;;;;;;19.60;78.20;;;;;;5034625;27;91243;-58
2022/10/21 08:59:59;;;;;;;;;;;19.60;78.10;;;;;;5037013;27;93282;-58
2022/10/21 09:02:27;;;;;;;;;;;19.60;78.00;;;;;;5044542;27;91403;-57
2022/10/21 09:05:05;;;;;;;;;;;19.50;77.90;;;;;;5052116;27;89464;-59
2022/10/21 09:07:36;;;;;;;;;;;19.60;78.00;;;;;;5037156;27;93045;-57
2022/10/21 09:10:09;;;;;;;;;;;19.60;77.90;;;;;;5044342;27;91266;-59
2022/10/21 09:12:38;;;;;;;;;;;19.60;77.90;;;;;;5044633;27;90475;-59
2022/10/21 09:15:23;;;;;;;;;;;19.60;77.90;;;;;;5025617;27;91309;-57
2022/10/21 09:17:51;;;;;;;;;;;19.60;77.90;;;;;;5039665;27;90252;-58
2022/10/21 09:20:19;;;;;;;;;;;19.60;77.80;;;;;;5030899;27;92756;-57
2022/10/21 09:22:51;;;;;;;;;;;19.60;77.80;;;;;;5029627;27;89754;-57
2022/10/21 09:25:42;;;;;;;;;;;19.60;77.80;;;;;;5038750;27;89987;-56
2022/10/21 09:28:10;;;;;;;;;;;19.60;77.80;;;;;;5012138;27;89733;-58
2022/10/21 09:30:36;;;;;;;;;;;19.60;77.70;;;;;;5036905;27;91262;-58
2022/10/21 09:33:06;;;;;;;;;;;19.60;77.80;;;;;;5040277;27;89725;-59
2022/10/21 09:35:37;;;;;;;;;;;19.60;77.70;;;;;;5018648;27;92562;-56
2022/10/21 09:38:09;;;;;;;;;;;19.60;77.60;;;;;;5045307;27;90225;-56
2022/10/21 09:40:34;;;;;;;;;;;19.60;77.60;;;;;;5034735;27;96806;-58
2022/10/21 09:43:00;;;;;;;;;;;19.70;77.70;;;;;;5051609;27;89518;-57
2022/10/21 09:45:32;;;;;;;;;;;19.60;77.60;;;;;;5041257;27;92016;-58
2022/10/21 09:47:59;;;;;;;;;;;19.60;78.30;;;;;;5034678;27;91235;-58
2022/10/21 09:50:25;;;;;;;;;;;19.60;77.60;;;;;;5044054;27;91324;-57
2022/10/21 09:53:03;;;;;;;;;;;19.70;77.60;;;;;;5051519;27;89826;-57
2022/10/21 09:55:30;;;;;;;;;;;19.70;77.70;;;;;;5040848;27;91734;-57
2022/10/21 10:00:04;;;;;;;75.03;51.45;;;19.70;77.80;;;;;;5005696;27;82576;-57
2022/10/21 10:02:39;;;;;;;74.05;51.70;;;19.90;79.60;;;;;;4962981;28;85914;-57
2022/10/21 10:05:32;;;;;;;72.40;51.25;;;20.00;78.70;;;;;;4999190;27;85166;-56
2022/10/21 10:07:58;;;;;;;71.38;51.45;;;20.00;78.90;;;;;;4966017;28;85598;-55
2022/10/21 10:10:32;;;;;;;73.00;51.95;;;19.90;78.90;;;;;;4969380;28;85398;-58
2022/10/21 10:12:59;;;;;;;71.20;51.38;;;19.80;79.10;;;;;;4967136;28;85946;-55
2022/10/21 10:15:34;;;;;;;71.82;51.75;;;19.80;79.10;;;;;;4968217;28;87202;-57
2022/10/21 10:18:00;;;;;;;75.30;51.70;;;19.80;79.10;;;;;;4958842;28;87084;-57
2022/10/21 10:20:26;;;;;;;71.72;51.22;;;19.80;79.10;;;;;;4962903;28;85846;-56
2022/10/21 10:22:57;;;;;;;74.60;51.47;;;19.80;79.10;;;;;;4972054;28;87503;-55
2022/10/21 10:25:31;;;;;;;71.93;51.25;;;19.90;80.80;;;;;;4976125;28;85466;-56
2022/10/21 10:28:00;;;;;;;72.80;51.25;;;19.90;80.50;;;;;;4966409;28;85874;-56
2022/10/21 10:30:48;;;;;;;71.75;51.65;;;19.90;80.80;;;;;;4966219;28;87885;-55
2022/10/21 10:33:27;;;;;;;73.47;51.53;;;19.90;81.00;;;;;;4973507;28;85792;-55
2022/10/21 10:35:56;;;;;;;72.18;51.47;;;19.90;81.20;;;;;;4968060;28;89437;-56
2022/10/21 10:38:28;;;;;;;78.45;51.72;;;19.90;81.40;;;;;;4962812;28;87630;-55
2022/10/21 10:40:53;;;;;;;;;;;19.90;81.50;;;;;;4969457;28;89450;-55
2022/10/21 10:43:33;;;;;;;70.30;51.17;;;19.90;81.60;;;;;;4964743;28;83080;-54
2022/10/21 10:46:02;;;;;;;70.22;51.10;;;19.90;81.80;;;;;;4962173;28;85293;-55
2022/10/21 10:48:42;;;;;;;70.55;51.33;;;19.90;81.80;;;;;;4960253;28;85685;-54
2022/10/21 10:51:34;;;;;;;71.10;51.72;;;19.90;82.00;;;;;;4966521;28;87103;-55
2022/10/21 10:54:26;;;;;;;74.25;51.83;;;19.90;82.00;;;;;;4959940;28;86839;-55
2022/10/21 10:57:22;;;;;;;71.03;51.28;;;19.90;82.00;;;;;;4967131;28;85593;-56
2022/10/21 11:00:03;;;;;;;71.60;51.25;;;19.90;82.00;;;;;;4962138;28;87930;-56
2022/10/21 11:02:48;;;;;;;71.13;51.28;;;19.90;82.10;;;;;;4960928;28;85255;-55
2022/10/21 11:05:35;;;;;;;72.55;51.17;;;19.90;81.90;;;;;;4954259;28;85687;-56
2022/10/21 11:08:09;;;;;;;69.88;51.15;;;19.90;81.90;;;;;;4959931;28;87096;-56
2022/10/21 11:10:39;;;;;;;69.15;50.63;;;19.90;81.80;;;;;;4958540;28;85047;-55
2022/10/21 11:13:14;;;;;;;70.00;50.78;;;19.90;81.60;;;;;;4958154;28;87725;-56
2022/10/21 11:16:00;;;;;;;69.43;50.88;;;19.90;81.60;;;;;;4957410;28;85123;-55
2022/10/21 11:18:51;;;;;;;70.68;51.25;;;19.90;81.40;;;;;;4953300;28;87693;-57
2022/10/21 11:21:27;;;;;;;69.55;50.92;;;19.90;81.40;;;;;;4955734;28;85567;-55
2022/10/21 11:24:28;;;;;;;69.70;50.95;;;19.90;81.10;;;;;;4949522;28;86027;-56
2022/10/21 11:26:53;;;;;;;71.13;51.33;;;19.90;81.10;;;;;;4942518;28;86081;-56
2022/10/21 11:29:38;;;;;;;70.95;51.85;;;19.90;81.00;;;;;;4954928;28;85548;-54
2022/10/21 11:32:19;;;;;;;70.35;51.10;;;19.90;80.90;;;;;;4945608;28;85315;-54
2022/10/21 11:35:15;;;;;;;70.88;51.22;;;19.90;80.70;;;;;;4955871;28;85106;-55
2022/10/21 11:38:01;;;;;;;70.43;51.60;;;19.90;80.60;;;;;;4950888;28;85587;-55
2022/10/21 11:40:32;;;;;;;71.40;51.35;;;19.90;80.40;;;;;;4926045;28;85532;-56
2022/10/21 11:43:17;;;;;;;70.03;50.63;;;19.90;80.30;;;;;;4955339;28;87942;-55
2022/10/21 11:45:59;;;;;;;70.85;51.00;;;19.90;80.30;;;;;;4953488;28;85094;-54
2022/10/21 11:48:41;;;;;;;70.30;50.97;;;19.90;80.10;;;;;;4948699;28;86608;-55
2022/10/21 11:51:31;;;;;;;70.18;51.13;;;20.00;80.10;;;;;;4950480;28;88994;-56
2022/10/21 11:54:02;;;;;;;71.45;51.25;;;20.00;80.00;;;;;;4946777;28;85427;-55
2022/10/21 11:56:53;;;;;;;70.45;51.05;;;20.00;79.90;;;;;;4951296;28;85231;-55
2022/10/21 11:59:34;;;;;;;70.70;51.28;;;20.00;79.80;;;;;;4940015;28;85271;-54
2022/10/21 12:02:09;;;;;;;69.70;50.87;;;20.00;79.70;;;;;;4950463;28;85502;-56
2022/10/21 12:04:46;;;;;;;70.53;51.53;;;20.00;79.60;;;;;;4956500;28;85316;-56
2022/10/21 12:07:36;;;;;;;70.15;51.00;;;20.00;79.60;;;;;;4951367;28;85729;-55
2022/10/21 12:10:10;;;;;;;70.20;51.10;;;20.00;79.50;;;;;;4953247;28;85593;-55
2022/10/21 12:12:39;;;;;;;70.43;50.67;;;20.00;79.50;;;;;;4952173;28;85674;-54
2022/10/21 12:15:16;;;;;;;71.35;51.17;;;20.00;79.40;;;;;;4946691;28;85550;-54
2022/10/21 12:17:43;;;;;;;71.57;50.80;;;20.00;79.40;;;;;;4952239;28;85380;-56
2022/10/21 12:20:25;;;;;;;71.32;51.92;;;20.00;79.30;;;;;;4944959;28;86639;-56
2022/10/21 12:22:58;;;;;;;71.00;51.50;;;20.00;79.30;;;;;;4943347;28;86126;-57
2022/10/21 12:25:35;;;;;;;70.97;51.13;;;20.00;79.20;;;;;;4953435;28;85175;-55
2022/10/21 12:28:15;;;;;;;70.72;50.95;;;20.10;79.30;;;;;;4956898;28;88537;-55
2022/10/21 12:31:02;;;;;;;71.20;51.08;;;20.10;79.20;;;;;;4943210;28;89252;-54
2022/10/21 12:33:40;;;;;;;71.75;51.33;;;20.00;79.10;;;;;;4949777;28;86741;-56
2022/10/21 12:36:23;;;;;;;71.15;51.65;;;20.10;79.10;;;;;;4943758;28;86785;-55
2022/10/21 12:38:50;;;;;;;71.85;51.38;;;20.10;79.00;;;;;;4947317;28;87132;-56
2022/10/21 12:41:38;;;;;;;71.63;51.80;;;20.10;79.00;;;;;;4945198;28;86257;-57
2022/10/21 12:44:25;;;;;;;72.38;51.70;;;20.10;78.90;;;;;;4951032;28;85769;-57
2022/10/21 12:46:59;;;;;;;71.35;51.67;;;20.10;78.80;;;;;;4947991;28;85611;-55
2022/10/21 12:49:34;;;;;;;71.65;51.30;;;20.10;78.80;;;;;;4961742;28;86012;-55
2022/10/21 12:52:22;;;;;;;72.05;51.40;;;20.10;78.70;;;;;;4944106;28;85492;-55
2022/10/21 12:54:55;;;;;;;72.65;51.33;;;20.10;78.60;;;;;;4949850;28;85981;-54
2022/10/21 12:57:42;;;;;;;72.00;51.55;;;20.10;78.50;;;;;;4947349;28;85291;-54
2022/10/21 13:00:26;;;;;;;71.85;51.25;;;20.10;78.50;;;;;;4948576;28;87986;-55
2022/10/21 13:03:08;;;;;;;71.63;51.30;;;20.10;78.50;;;;;;4951731;28;86331;-56
2022/10/21 13:05:37;;;;;;;71.50;51.40;;;20.10;78.40;;;;;;4945202;28;85038;-56
2022/10/21 13:08:26;;;;;;;71.60;50.97;;;20.10;78.40;;;;;;4955488;28;85596;-56
2022/10/21 13:11:04;;;;;;;71.80;51.28;;;20.10;78.40;;;;;;4958019;28;87621;-54
2022/10/21 13:13:37;;;;;;;71.28;50.92;;;20.10;78.30;;;;;;4962006;28;91914;-55
2022/10/21 13:16:23;;;;;;;71.60;51.33;;;20.10;78.30;;;;;;4952827;28;85182;-54
2022/10/21 13:19:26;;;;;;;71.80;51.45;;;20.10;78.30;;;;;;4946991;28;85531;-56
2022/10/21 13:22:10;;;;;;;71.25;51.30;;;20.10;78.20;;;;;;4946523;28;87866;-56
2022/10/21 13:24:36;;;;;;;70.72;51.08;;;20.10;78.20;;;;;;4959351;28;85729;-55
2022/10/21 13:27:22;;;;;;;70.30;50.88;;;20.10;78.20;;;;;;4949549;28;87880;-55
2022/10/21 13:29:49;;;;;;;70.40;51.15;;;20.10;78.10;;;;;;4949304;28;87041;-56
2022/10/21 13:32:16;;;;;;;71.38;51.22;;;20.10;78.10;;;;;;4947414;28;88224;-58
2022/10/21 13:34:52;;;;;;;70.38;50.95;;;20.10;78.10;;;;;;4953333;28;87568;-54
2022/10/21 13:37:28;;;;;;;70.38;50.80;;;20.20;78.10;;;;;;4955084;28;88144;-55
2022/10/21 13:39:56;;;;;;;72.07;51.53;;;20.20;78.80;;;;;;4948913;28;89524;-56
2022/10/21 13:42:22;;;;;;;70.57;51.20;;;20.20;78.00;;;;;;4948417;28;86615;-55
2022/10/21 13:44:58;;;;;;;70.68;51.45;;;20.20;77.90;;;;;;4954135;28;85258;-55
2022/10/21 13:47:33;;;;;;;70.45;50.80;;;20.20;77.90;;;;;;4953340;28;86607;-56
2022/10/21 13:50:19;;;;;;;70.05;50.97;;;20.20;77.80;;;;;;4953795;28;86235;-54
2022/10/21 13:52:45;;;;;;;70.80;51.05;;;20.20;77.80;;;;;;4950525;28;87138;-56
2022/10/21 13:55:20;;;;;;;70.68;51.10;;;20.20;77.80;;;;;;4956954;28;86445;-54
2022/10/21 13:57:47;;;;;;;70.80;51.00;;;20.20;77.70;;;;;;4944617;28;86181;-55
2022/10/21 14:00:29;;;;;;;70.70;51.30;;;20.20;77.70;;;;;;4947390;28;86851;-54
2022/10/21 14:03:04;;;;;;;70.85;51.33;;;20.30;77.70;;;;;;4953343;28;90030;-56